createdAt,value
2023-02-24T00:07:45.088Z,39.50
2023-02-24T00:17:48.663Z,37.50
2023-02-24T00:27:56.030Z,40.10
2023-02-24T00:38:01.484Z,43.80
2023-02-24T00:48:10.901Z,41.70
2023-02-24T00:58:14.600Z,39.80
2023-02-24T01:08:21.924Z,40.80
2023-02-24T01:18:28.243Z,42.60
2023-02-24T01:28:31.901Z,42.30
2023-02-24T01:38:43.032Z,44.40
2023-02-24T01:48:48.003Z,47.80
2023-02-24T01:58:54.497Z,50.00
2023-02-24T02:08:58.824Z,50.30
2023-02-24T02:19:26.480Z,57.30
2023-02-24T02:30:02.037Z,60.80
2023-02-24T02:40:22.594Z,61.40
2023-02-24T02:51:04.445Z,56.90
2023-02-24T03:01:18.645Z,59.10
2023-02-24T03:11:24.307Z,60.30
2023-02-24T03:21:39.405Z,58.20
2023-02-24T03:32:09.383Z,55.10
2023-02-24T03:42:19.225Z,51.10
2023-02-24T03:52:29.441Z,49.50
2023-02-24T04:02:38.200Z,48.40
2023-02-24T04:13:02.384Z,48.80
2023-02-24T04:23:14.460Z,54.00
2023-02-24T04:33:18.662Z,52.90
2023-02-24T04:43:22.659Z,50.20
2023-02-24T04:53:30.585Z,39.80
2023-02-24T05:03:37.162Z,35.90
2023-02-24T05:13:40.741Z,36.80
2023-02-24T05:23:47.017Z,35.30
2023-02-24T05:33:59.238Z,33.30
2023-02-24T05:44:12.618Z,31.50
2023-02-24T05:54:23.063Z,30.40
2023-02-24T06:04:46.033Z,28.20
2023-02-24T06:14:53.296Z,26.60
2023-02-24T06:24:58.722Z,25.70
2023-02-24T06:35:04.252Z,25.60
2023-02-24T06:45:09.473Z,23.30
2023-02-24T06:55:28.233Z,21.80
2023-02-24T07:05:34.478Z,20.80
2023-02-24T07:15:40.184Z,18.30
2023-02-24T07:25:46.535Z,17.60
2023-02-24T07:35:52.724Z,16.60
2023-02-24T07:46:01.227Z,16.70
2023-02-24T07:56:16.188Z,16.10
2023-02-24T08:06:39.280Z,14.50
2023-02-24T08:16:50.893Z,14.50
2023-02-24T08:27:06.430Z,14.10
2023-02-24T08:37:15.946Z,12.90
2023-02-24T08:47:21.374Z,13.20
2023-02-24T08:57:27.084Z,13.10
2023-02-24T09:07:41.662Z,13.40
2023-02-24T09:17:46.007Z,11.40
2023-02-24T09:28:17.878Z,12.00
2023-02-24T09:38:42.965Z,12.70
2023-02-24T09:49:05.492Z,12.30
2023-02-24T09:59:27.347Z,13.00
2023-02-24T10:09:42.546Z,12.80
2023-02-24T10:19:46.241Z,15.40
2023-02-24T10:30:19.952Z,15.90
2023-02-24T10:40:46.358Z,17.60
2023-02-24T10:51:08.600Z,15.80
2023-02-24T11:01:21.551Z,15.20
2023-02-24T11:11:55.886Z,12.80
2023-02-24T11:22:00.251Z,12.20
2023-02-24T11:33:01.623Z,13.20
2023-02-24T11:43:14.099Z,8.60
2023-02-24T11:53:20.718Z,12.80
2023-02-24T12:03:47.506Z,10.40
2023-02-24T12:14:00.239Z,10.90
2023-02-24T12:24:08.989Z,12.60
2023-02-24T12:34:23.531Z,10.70
2023-02-24T12:44:46.286Z,9.30
2023-02-24T12:55:23.215Z,6.30
2023-02-24T13:05:44.688Z,7.40
2023-02-24T13:15:59.203Z,16.80
2023-02-24T13:26:03.917Z,9.90
2023-02-24T13:36:11.061Z,12.80
2023-02-24T13:46:21.385Z,12.20
2023-02-24T13:56:43.006Z,12.30
2023-02-24T14:06:54.268Z,19.40
2023-02-24T14:16:57.915Z,10.80
2023-02-24T14:27:05.362Z,11.50
2023-02-24T14:37:17.470Z,11.30
2023-02-24T14:47:24.495Z,10.00
2023-02-24T14:57:37.498Z,9.60
2023-02-24T15:07:47.657Z,10.20
2023-02-24T15:18:04.434Z,11.80
2023-02-24T15:28:25.246Z,12.30
2023-02-24T15:38:36.211Z,20.20
2023-02-24T15:48:42.998Z,11.60
2023-02-24T15:58:48.268Z,11.80
2023-02-24T16:09:00.208Z,24.80
2023-02-24T16:19:04.766Z,15.50
2023-02-24T16:29:14.431Z,23.50
2023-02-24T16:39:18.316Z,31.80
2023-02-24T16:49:22.783Z,23.30
2023-02-24T16:59:30.462Z,38.60
2023-02-24T17:09:34.577Z,19.60
2023-02-24T17:19:38.854Z,20.70
2023-02-24T17:29:42.376Z,14.20
2023-02-24T17:39:45.931Z,13.30
2023-02-24T17:49:51.547Z,13.40
2023-02-24T17:59:55.827Z,15.60
2023-02-24T18:10:00.002Z,14.20
2023-02-24T18:20:05.282Z,15.30
2023-02-24T18:30:11.095Z,16.10
2023-02-24T18:40:15.730Z,18.50
2023-02-24T18:50:20.813Z,19.90
2023-02-24T19:00:26.220Z,21.60
2023-02-24T19:10:31.687Z,16.70
2023-02-24T19:20:35.380Z,20.80
2023-02-24T19:30:40.238Z,21.50
2023-02-24T19:40:45.072Z,19.90
2023-02-24T19:50:48.760Z,20.70
2023-02-24T20:00:52.463Z,23.90
2023-02-24T20:11:00.938Z,18.40
2023-02-24T20:21:05.200Z,20.50
2023-02-24T20:31:18.776Z,21.50
2023-02-24T20:41:22.540Z,17.10
2023-02-24T20:51:27.442Z,19.60
2023-02-24T21:01:37.185Z,15.10
2023-02-24T21:11:43.701Z,19.40
2023-02-24T21:21:48.954Z,21.70
2023-02-24T21:31:52.931Z,19.70
2023-02-24T21:41:56.805Z,29.40
2023-02-24T21:52:00.978Z,17.70
2023-02-24T22:02:04.674Z,17.80
2023-02-24T22:12:08.580Z,17.50
2023-02-24T22:22:12.207Z,19.90
2023-02-24T22:32:15.930Z,21.20
2023-02-24T22:42:19.495Z,17.90
2023-02-24T22:52:23.075Z,19.90
2023-02-24T23:02:27.614Z,21.90
2023-02-24T23:12:33.298Z,22.00
2023-02-24T23:22:36.850Z,22.10
2023-02-24T23:32:45.308Z,21.90
2023-02-24T23:42:48.933Z,20.50
2023-02-24T23:52:54.618Z,19.40
